createdAt,value
2023-01-28T00:01:35.966Z,10.20
2023-01-28T00:04:22.995Z,10.25
2023-01-28T00:07:09.678Z,10.32
2023-01-28T00:09:56.279Z,11.15
2023-01-28T00:12:44.578Z,10.48
2023-01-28T00:15:31.582Z,12.15
2023-01-28T00:18:18.262Z,10.13
2023-01-28T00:21:07.657Z,10.13
2023-01-28T00:23:56.007Z,11.25
2023-01-28T00:26:43.838Z,10.60
2023-01-28T00:29:32.119Z,10.55
2023-01-28T00:32:18.725Z,11.18
2023-01-28T00:35:05.979Z,11.02
2023-01-28T00:37:52.916Z,10.98
2023-01-28T00:40:39.916Z,13.55
2023-01-28T00:43:26.879Z,11.35
2023-01-28T00:46:15.580Z,11.90
2023-01-28T00:49:02.890Z,11.70
2023-01-28T00:51:49.987Z,9.93
2023-01-28T00:54:37.640Z,10.43
2023-01-28T00:57:24.447Z,11.85
2023-01-28T01:00:12.738Z,11.75
2023-01-28T01:03:01.105Z,9.45
2023-01-28T01:05:48.618Z,11.88
2023-01-28T01:08:40.173Z,11.32
2023-01-28T01:11:27.062Z,11.45
2023-01-28T01:14:13.818Z,9.82
2023-01-28T01:17:00.643Z,10.35
2023-01-28T01:19:48.845Z,10.57
2023-01-28T01:22:35.989Z,11.60
2023-01-28T01:25:23.232Z,10.75
2023-01-28T01:28:10.051Z,13.13
2023-01-28T01:31:02.198Z,11.68
2023-01-28T01:33:50.910Z,12.07
2023-01-28T01:36:39.280Z,15.35
2023-01-28T01:39:26.267Z,9.82
2023-01-28T01:42:14.936Z,10.05
2023-01-28T01:45:04.309Z,9.82
2023-01-28T01:48:02.199Z,11.63
2023-01-28T01:50:54.104Z,11.23
2023-01-28T01:53:44.985Z,11.75
2023-01-28T01:56:36.727Z,10.30
2023-01-28T01:59:27.051Z,10.20
2023-01-28T02:02:14.320Z,12.75
2023-01-28T02:07:55.013Z,10.85
2023-01-28T02:10:43.239Z,10.68
2023-01-28T02:13:34.438Z,10.07
2023-01-28T02:16:22.258Z,10.57
2023-01-28T02:19:10.245Z,10.18
2023-01-28T02:22:11.350Z,10.25
2023-01-28T02:25:17.836Z,11.57
2023-01-28T02:28:24.024Z,10.68
2023-01-28T02:31:15.771Z,11.77
2023-01-28T02:34:11.209Z,10.98
2023-01-28T02:37:04.008Z,9.65
2023-01-28T02:39:55.790Z,10.65
2023-01-28T02:42:43.295Z,10.50
2023-01-28T02:45:47.944Z,10.75
2023-01-28T02:48:34.663Z,11.60
2023-01-28T02:51:34.378Z,10.13
2023-01-28T02:54:32.947Z,12.48
2023-01-28T02:57:31.379Z,10.40
2023-01-28T03:00:24.269Z,10.80
2023-01-28T03:03:17.950Z,9.95
2023-01-28T03:06:08.929Z,9.63
2023-01-28T03:09:17.518Z,10.57
2023-01-28T03:12:25.581Z,12.45
2023-01-28T03:15:34.544Z,10.75
2023-01-28T03:18:45.334Z,12.38
2023-01-28T03:21:53.069Z,11.10
2023-01-28T03:25:05.438Z,11.15
2023-01-28T03:28:13.476Z,11.77
2023-01-28T03:31:24.813Z,9.48
2023-01-28T03:34:34.290Z,10.93
2023-01-28T03:37:21.151Z,11.43
2023-01-28T03:40:13.198Z,11.10
2023-01-28T03:43:00.798Z,10.93
2023-01-28T03:45:55.530Z,10.40
2023-01-28T03:48:42.596Z,10.93
2023-01-28T03:51:32.285Z,12.82
2023-01-28T03:54:18.611Z,11.98
2023-01-28T03:57:07.061Z,11.50
2023-01-28T03:59:54.320Z,11.38
2023-01-28T04:02:41.886Z,12.60
2023-01-28T04:05:31.716Z,11.43
2023-01-28T04:08:21.024Z,11.70
2023-01-28T04:11:26.101Z,11.40
2023-01-28T04:14:12.612Z,11.68
2023-01-28T04:17:19.441Z,12.63
2023-01-28T04:20:07.272Z,11.27
2023-01-28T04:22:53.897Z,11.88
2023-01-28T04:25:43.349Z,11.20
2023-01-28T04:28:30.210Z,11.13
2023-01-28T04:31:18.246Z,10.10
2023-01-28T04:34:14.387Z,11.68
2023-01-28T04:37:11.727Z,11.63
2023-01-28T04:40:16.934Z,10.15
2023-01-28T04:43:19.969Z,10.77
2023-01-28T04:46:29.416Z,13.15
2023-01-28T04:49:33.424Z,11.35
2023-01-28T04:52:32.384Z,12.20
2023-01-28T04:55:32.882Z,13.52
2023-01-28T04:58:21.993Z,12.35
2023-01-28T05:01:11.397Z,13.82
2023-01-28T05:03:58.037Z,12.07
2023-01-28T05:06:46.640Z,12.75
2023-01-28T05:09:39.213Z,13.20
2023-01-28T05:12:25.912Z,12.95
2023-01-28T05:15:16.513Z,13.20
2023-01-28T05:18:03.325Z,12.15
2023-01-28T05:20:55.194Z,12.48
2023-01-28T05:23:41.882Z,11.43
2023-01-28T05:26:29.049Z,12.32
2023-01-28T05:29:15.397Z,11.95
2023-01-28T05:32:03.499Z,11.00
2023-01-28T05:34:51.432Z,11.52
2023-01-28T05:37:38.152Z,11.52
2023-01-28T05:40:24.882Z,11.90
2023-01-28T05:43:11.761Z,11.77
2023-01-28T05:46:04.376Z,19.05
2023-01-28T05:49:22.239Z,11.52
2023-01-28T05:52:28.885Z,11.25
2023-01-28T05:55:16.311Z,11.35
2023-01-28T05:58:03.032Z,11.85
2023-01-28T06:00:50.044Z,9.80
2023-01-28T06:03:42.717Z,8.80
2023-01-28T06:06:31.121Z,8.93
2023-01-28T06:09:17.844Z,9.93
2023-01-28T06:12:04.082Z,11.25
2023-01-28T06:14:56.494Z,10.30
2023-01-28T06:18:09.025Z,12.10
2023-01-28T06:20:55.492Z,10.25
2023-01-28T06:23:43.066Z,10.52
2023-01-28T06:26:30.193Z,10.95
2023-01-28T06:29:17.089Z,10.60
2023-01-28T06:32:04.020Z,9.32
2023-01-28T06:34:50.430Z,12.10
2023-01-28T06:37:37.349Z,10.63
2023-01-28T06:40:25.994Z,11.52
2023-01-28T06:43:12.452Z,10.82
2023-01-28T06:45:59.832Z,10.02
2023-01-28T06:48:47.050Z,9.85
2023-01-28T06:51:33.635Z,12.85
2023-01-28T06:54:19.977Z,11.30
2023-01-28T06:57:07.970Z,12.45
2023-01-28T06:59:54.432Z,11.20
2023-01-28T07:02:41.074Z,10.90
2023-01-28T07:05:27.644Z,10.75
2023-01-28T07:08:14.423Z,11.85
2023-01-28T07:11:01.566Z,11.70
2023-01-28T07:13:49.328Z,11.77
2023-01-28T07:16:35.764Z,11.38
2023-01-28T07:19:22.275Z,12.07
2023-01-28T07:22:08.848Z,12.85
2023-01-28T07:24:55.668Z,14.82
2023-01-28T07:27:47.640Z,15.93
2023-01-28T07:30:35.283Z,11.65
2023-01-28T07:33:22.294Z,11.73
2023-01-28T07:36:09.442Z,13.10
2023-01-28T07:38:55.712Z,13.85
2023-01-28T07:41:42.253Z,15.02
2023-01-28T07:44:30.573Z,13.23
2023-01-28T07:47:19.590Z,13.40
2023-01-28T07:50:06.979Z,12.55
2023-01-28T07:52:53.518Z,11.63
2023-01-28T07:55:40.331Z,12.75
2023-01-28T07:58:26.693Z,13.85
2023-01-28T08:01:14.216Z,13.52
2023-01-28T08:04:02.136Z,13.98
2023-01-28T08:06:48.712Z,14.40
2023-01-28T08:09:35.450Z,14.73
2023-01-28T08:12:21.924Z,13.05
2023-01-28T08:15:09.678Z,13.90
2023-01-28T08:17:57.779Z,13.65
2023-01-28T08:20:47.349Z,17.02
2023-01-28T08:23:34.607Z,15.85
2023-01-28T08:26:21.329Z,17.58
2023-01-28T08:29:08.084Z,14.55
2023-01-28T08:31:54.750Z,15.15
2023-01-28T08:34:41.300Z,13.10
2023-01-28T08:37:29.068Z,12.88
2023-01-28T08:40:16.690Z,12.55
2023-01-28T08:43:03.517Z,12.77
2023-01-28T08:45:50.323Z,13.80
2023-01-28T08:48:38.509Z,12.20
2023-01-28T08:51:25.060Z,11.32
2023-01-28T08:54:12.906Z,11.88
2023-01-28T08:56:59.497Z,12.88
2023-01-28T08:59:46.419Z,14.70
2023-01-28T09:02:33.034Z,9.45
2023-01-28T09:05:19.962Z,9.80
2023-01-28T09:08:09.272Z,8.63
2023-01-28T09:10:57.803Z,9.20
2023-01-28T09:13:44.117Z,10.65
2023-01-28T09:16:30.565Z,10.57
2023-01-28T09:19:17.109Z,10.23
2023-01-28T09:22:04.645Z,8.15
2023-01-28T09:24:51.080Z,8.45
2023-01-28T09:27:39.041Z,9.00
2023-01-28T09:30:25.818Z,12.50
2023-01-28T09:33:12.571Z,10.15
2023-01-28T09:36:01.071Z,8.82
2023-01-28T09:38:47.638Z,12.07
2023-01-28T09:41:48.698Z,10.02
2023-01-28T09:44:53.556Z,9.60
2023-01-28T09:47:45.396Z,9.00
2023-01-28T09:50:34.682Z,8.90
2023-01-28T09:53:25.970Z,9.82
2023-01-28T09:56:17.024Z,7.70
2023-01-28T09:59:17.676Z,9.00
2023-01-28T10:02:26.081Z,10.43
2023-01-28T10:05:21.380Z,8.25
2023-01-28T10:08:26.524Z,9.23
2023-01-28T10:11:21.691Z,7.63
2023-01-28T10:14:14.472Z,9.35
2023-01-28T10:17:11.538Z,9.02
2023-01-28T10:20:02.986Z,8.70
2023-01-28T10:22:54.173Z,8.30
2023-01-28T10:28:32.582Z,9.68
2023-01-28T10:31:19.096Z,11.90
2023-01-28T10:34:07.270Z,10.77
2023-01-28T10:36:54.396Z,8.80
2023-01-28T10:39:41.148Z,7.90
2023-01-28T10:42:30.367Z,8.00
2023-01-28T10:45:22.138Z,7.43
2023-01-28T10:48:16.212Z,10.75
2023-01-28T10:51:06.113Z,7.25
2023-01-28T10:53:52.344Z,8.32
2023-01-28T10:56:39.131Z,8.05
2023-01-28T10:59:29.078Z,9.55
2023-01-28T11:02:29.328Z,9.43
2023-01-28T11:05:20.871Z,9.38
2023-01-28T11:08:15.550Z,6.55
2023-01-28T11:11:02.200Z,10.30
2023-01-28T11:13:53.448Z,7.53
2023-01-28T11:16:41.167Z,7.32
2023-01-28T11:19:34.862Z,12.88
2023-01-28T11:22:28.427Z,7.13
2023-01-28T11:25:22.753Z,6.78
2023-01-28T11:28:19.575Z,6.75
2023-01-28T11:31:06.763Z,8.73
2023-01-28T11:33:57.206Z,8.25
2023-01-28T11:36:52.045Z,6.22
2023-01-28T11:39:38.813Z,7.07
2023-01-28T11:42:26.645Z,9.45
2023-01-28T11:45:17.914Z,6.50
2023-01-28T11:48:15.641Z,5.63
2023-01-28T11:51:05.834Z,7.40
2023-01-28T11:56:58.152Z,4.50
2023-01-28T11:59:59.439Z,5.85
2023-01-28T12:02:54.616Z,4.57
2023-01-28T12:05:50.472Z,5.80
2023-01-28T12:08:46.001Z,5.97
2023-01-28T12:12:03.544Z,6.60
2023-01-28T12:15:17.726Z,6.80
2023-01-28T12:18:18.150Z,10.50
2023-01-28T12:24:10.881Z,5.32
2023-01-28T12:27:06.661Z,6.28
2023-01-28T12:30:05.174Z,6.80
2023-01-28T12:33:06.818Z,6.40
2023-01-28T12:36:07.352Z,5.25
2023-01-28T12:39:04.306Z,6.97
2023-01-28T12:41:56.950Z,6.18
2023-01-28T12:44:49.699Z,9.13
2023-01-28T12:47:40.544Z,6.63
2023-01-28T12:50:32.640Z,5.18
2023-01-28T12:53:27.115Z,6.47
2023-01-28T12:56:17.657Z,5.32
2023-01-28T12:59:11.615Z,7.43
2023-01-28T13:02:10.326Z,6.80
2023-01-28T13:05:07.026Z,8.05
2023-01-28T13:07:58.371Z,10.15
2023-01-28T13:10:47.218Z,6.05
2023-01-28T13:13:35.195Z,6.03
2023-01-28T13:16:35.902Z,7.13
2023-01-28T13:19:26.181Z,6.20
2023-01-28T13:22:28.036Z,7.30
2023-01-28T13:25:21.261Z,8.23
2023-01-28T13:28:29.511Z,7.75
2023-01-28T13:31:18.504Z,8.30
2023-01-28T13:34:07.683Z,7.32
2023-01-28T13:36:54.788Z,6.97
2023-01-28T13:39:49.189Z,7.82
2023-01-28T13:42:36.363Z,10.02
2023-01-28T13:45:24.821Z,5.65
2023-01-28T13:48:28.099Z,8.85
2023-01-28T13:51:21.122Z,7.95
2023-01-28T13:54:13.692Z,8.18
2023-01-28T13:57:34.823Z,5.68
2023-01-28T14:00:27.734Z,7.30
2023-01-28T14:03:42.003Z,7.85
2023-01-28T14:07:02.358Z,14.40
2023-01-28T14:10:06.972Z,8.45
2023-01-28T14:13:13.847Z,6.72
2023-01-28T14:16:15.922Z,8.48
2023-01-28T14:19:03.565Z,8.48
2023-01-28T14:21:50.547Z,7.97
2023-01-28T14:24:38.764Z,5.28
2023-01-28T14:27:33.401Z,6.20
2023-01-28T14:30:27.903Z,9.68
2023-01-28T14:33:14.842Z,9.18
2023-01-28T14:36:01.392Z,8.43
2023-01-28T14:38:48.084Z,7.53
2023-01-28T14:41:36.016Z,8.32
2023-01-28T14:44:30.241Z,8.70
2023-01-28T14:47:33.524Z,8.02
2023-01-28T14:50:36.563Z,9.60
2023-01-28T14:53:39.662Z,5.72
2023-01-28T14:56:38.589Z,6.32
2023-01-28T14:59:29.439Z,7.90
2023-01-28T15:02:22.782Z,5.30
2023-01-28T15:05:11.679Z,10.07
2023-01-28T15:07:58.381Z,6.05
2023-01-28T15:10:45.094Z,6.85
2023-01-28T15:13:37.317Z,6.53
2023-01-28T15:16:29.007Z,6.35
2023-01-28T15:19:18.087Z,6.68
2023-01-28T15:22:08.229Z,7.10
2023-01-28T15:24:55.400Z,6.60
2023-01-28T15:27:43.355Z,7.15
2023-01-28T15:30:31.746Z,6.80
2023-01-28T15:33:18.539Z,7.25
2023-01-28T15:36:07.608Z,9.52
2023-01-28T15:38:54.556Z,11.50
2023-01-28T15:41:44.478Z,11.38
2023-01-28T15:44:34.898Z,10.30
2023-01-28T15:47:24.800Z,9.55
2023-01-28T15:50:19.592Z,7.53
2023-01-28T15:53:11.137Z,11.60
2023-01-28T15:56:06.842Z,9.45
2023-01-28T15:58:53.955Z,6.97
2023-01-28T16:01:40.233Z,10.52
2023-01-28T16:04:28.671Z,7.75
2023-01-28T16:07:15.656Z,9.38
2023-01-28T16:10:04.725Z,10.45
2023-01-28T16:12:53.216Z,9.18
2023-01-28T16:15:41.745Z,10.50
2023-01-28T16:18:36.582Z,10.02
2023-01-28T16:21:26.486Z,9.30
2023-01-28T16:24:24.730Z,17.17
2023-01-28T16:27:23.364Z,8.80
2023-01-28T16:30:12.461Z,8.45
2023-01-28T16:33:00.241Z,9.45
2023-01-28T16:36:04.541Z,9.88
2023-01-28T16:38:52.833Z,9.88
2023-01-28T16:41:42.297Z,11.18
2023-01-28T16:44:30.492Z,10.27
2023-01-28T16:47:17.285Z,12.23
2023-01-28T16:50:04.045Z,10.38
2023-01-28T16:52:54.548Z,12.98
2023-01-28T16:55:41.447Z,11.25
2023-01-28T16:58:28.770Z,14.23
2023-01-28T17:01:16.750Z,12.32
2023-01-28T17:04:05.601Z,12.32
2023-01-28T17:06:53.225Z,17.95
2023-01-28T17:09:40.690Z,15.45
2023-01-28T17:12:27.367Z,14.73
2023-01-28T17:15:14.436Z,14.70
2023-01-28T17:18:03.089Z,16.30
2023-01-28T17:20:49.623Z,13.07
2023-01-28T17:23:36.684Z,15.43
2023-01-28T17:26:22.976Z,14.23
2023-01-28T17:29:09.750Z,11.95
2023-01-28T17:31:57.001Z,14.75
2023-01-28T17:34:45.262Z,12.85
2023-01-28T17:37:31.867Z,12.98
2023-01-28T17:40:19.273Z,13.35
2023-01-28T17:43:06.288Z,14.20
2023-01-28T17:45:52.838Z,12.18
2023-01-28T17:48:39.637Z,14.48
2023-01-28T17:51:27.853Z,16.00
2023-01-28T17:54:15.738Z,12.23
2023-01-28T17:57:02.624Z,14.93
2023-01-28T17:59:49.172Z,15.45
2023-01-28T18:02:35.799Z,16.02
2023-01-28T18:05:22.560Z,15.38
2023-01-28T18:08:10.797Z,15.50
2023-01-28T18:10:57.599Z,16.83
2023-01-28T18:13:44.496Z,20.83
2023-01-28T18:16:31.565Z,14.43
2023-01-28T18:19:18.182Z,16.52
2023-01-28T18:22:04.914Z,15.98
2023-01-28T18:24:52.917Z,14.88
2023-01-28T18:27:39.622Z,13.38
2023-01-28T18:30:26.329Z,15.57
2023-01-28T18:33:12.959Z,18.15
2023-01-28T18:35:59.847Z,14.52
2023-01-28T18:38:46.713Z,11.50
2023-01-28T18:41:34.824Z,14.73
2023-01-28T18:44:23.103Z,14.75
2023-01-28T18:47:10.033Z,15.43
2023-01-28T18:49:56.284Z,17.70
2023-01-28T18:52:43.251Z,15.50
2023-01-28T18:55:29.927Z,18.90
2023-01-28T18:58:17.809Z,13.55
2023-01-28T19:01:08.726Z,13.75
2023-01-28T19:03:55.430Z,17.98
2023-01-28T19:06:42.223Z,18.08
2023-01-28T19:09:28.902Z,15.57
2023-01-28T19:12:15.634Z,15.85
2023-01-28T19:15:03.851Z,17.77
2023-01-28T19:17:50.001Z,16.48
2023-01-28T19:20:36.685Z,19.98
2023-01-28T19:23:23.388Z,16.52
2023-01-28T19:26:10.790Z,20.42
2023-01-28T19:28:57.343Z,20.45
2023-01-28T19:31:48.765Z,18.10
2023-01-28T19:34:35.321Z,16.95
2023-01-28T19:37:21.895Z,18.08
2023-01-28T19:40:09.752Z,17.63
2023-01-28T19:42:56.107Z,19.40
2023-01-28T19:45:42.827Z,19.58
2023-01-28T19:48:30.856Z,15.27
2023-01-28T19:51:17.560Z,18.77
2023-01-28T19:54:04.774Z,19.40
2023-01-28T19:56:51.136Z,19.95
2023-01-28T19:59:37.675Z,18.88
2023-01-28T20:02:24.346Z,19.20
2023-01-28T20:05:12.335Z,19.70
2023-01-28T20:07:58.924Z,20.08
2023-01-28T20:10:45.515Z,19.60
2023-01-28T20:13:33.895Z,19.85
2023-01-28T20:16:23.159Z,20.95
2023-01-28T20:19:15.237Z,17.63
2023-01-28T20:22:03.261Z,18.90
2023-01-28T20:24:57.019Z,19.20
2023-01-28T20:27:43.643Z,21.17
2023-01-28T20:30:30.185Z,18.65
2023-01-28T20:33:17.034Z,21.27
2023-01-28T20:36:04.239Z,17.50
2023-01-28T20:38:52.939Z,19.35
2023-01-28T20:41:39.718Z,20.42
2023-01-28T20:44:26.696Z,20.73
2023-01-28T20:47:12.907Z,20.17
2023-01-28T20:49:59.390Z,17.45
2023-01-28T20:52:45.989Z,19.63
2023-01-28T20:55:33.905Z,26.25
2023-01-28T20:58:20.380Z,20.98
2023-01-28T21:01:07.110Z,22.02
2023-01-28T21:03:54.040Z,20.90
2023-01-28T21:06:40.914Z,17.92
2023-01-28T21:09:27.917Z,20.33
2023-01-28T21:12:15.863Z,19.02
2023-01-28T21:15:03.476Z,22.42
2023-01-28T21:17:50.168Z,21.58
2023-01-28T21:20:36.528Z,22.85
2023-01-28T21:23:24.164Z,25.08
2023-01-28T21:26:11.459Z,23.63
2023-01-28T21:29:02.171Z,20.95
2023-01-28T21:34:35.251Z,23.08
2023-01-28T21:37:22.473Z,20.33
2023-01-28T21:40:10.515Z,24.17
2023-01-28T21:42:56.798Z,21.30
2023-01-28T21:45:47.632Z,27.23
2023-01-28T21:48:34.171Z,25.40
2023-01-28T21:51:40.381Z,23.40
2023-01-28T21:54:27.325Z,26.52
2023-01-28T21:57:13.911Z,27.42
2023-01-28T22:00:00.319Z,28.42
2023-01-28T22:02:48.240Z,26.85
2023-01-28T22:05:34.774Z,28.63
2023-01-28T22:08:21.307Z,26.15
2023-01-28T22:11:09.496Z,24.98
2023-01-28T22:13:56.054Z,25.95
2023-01-28T22:16:43.496Z,26.27
2023-01-28T22:19:31.623Z,26.55
2023-01-28T22:22:18.655Z,34.30
2023-01-28T22:25:05.446Z,27.00
2023-01-28T22:27:51.633Z,26.13
2023-01-28T22:30:38.263Z,31.10
2023-01-28T22:33:25.817Z,26.45
2023-01-28T22:36:16.906Z,28.48
2023-01-28T22:39:06.264Z,28.77
2023-01-28T22:41:53.126Z,27.33
2023-01-28T22:44:39.832Z,24.30
2023-01-28T22:47:26.315Z,26.83
2023-01-28T22:50:13.501Z,29.13
2023-01-28T22:53:01.649Z,29.90
2023-01-28T22:55:51.806Z,25.77
2023-01-28T22:58:38.363Z,25.80
2023-01-28T23:02:03.209Z,27.13
2023-01-28T23:04:50.831Z,26.75
2023-01-28T23:07:37.328Z,29.90
2023-01-28T23:10:25.152Z,31.30
2023-01-28T23:13:11.525Z,28.10
2023-01-28T23:16:15.837Z,30.83
2023-01-28T23:19:20.162Z,29.90
2023-01-28T23:22:36.066Z,32.28
2023-01-28T23:25:25.546Z,32.67
2023-01-28T23:28:11.827Z,29.77
2023-01-28T23:30:58.616Z,28.42
2023-01-28T23:33:44.993Z,27.48
2023-01-28T23:36:31.676Z,29.77
2023-01-28T23:39:18.286Z,28.27
2023-01-28T23:42:14.337Z,28.17
2023-01-28T23:45:00.433Z,32.55
2023-01-28T23:47:47.298Z,28.13
2023-01-28T23:50:33.523Z,32.05
2023-01-28T23:53:20.030Z,28.70
2023-01-28T23:56:07.521Z,29.92
2023-01-28T23:58:56.974Z,29.75
